Time;durP1;ratioP1;P1;durP2;ratioP2;P2;SDS_P1;SDS_P2;PMS_P1;PMS_P2;Temp;Humidity;BMP_temperature;BMP_pressure;BME280_temperature;BME280_humidity;BME280_pressure;Samples;Min_cycle;Max_cycle;Signal;HPM_P1;HPM_P2
2021/10/05 12:21:05;;;;;;;2.92;1.40;;;16.40;99.90;;;;;;5091244;28;20964;-79
2021/10/05 12:23:31;;;;;;;4.30;1.85;;;15.90;99.90;;;;;;5091290;28;20167;-79
2021/10/05 12:26:07;;;;;;;8.13;1.40;;;16.00;99.90;;;;;;5091448;28;20174;-79
2021/10/05 12:28:33;;;;;;;3.70;1.50;;;16.00;99.90;;;;;;5091310;28;20163;-79
2021/10/05 12:30:58;;;;;;;1.52;1.42;;;16.00;99.90;;;;;;5091087;28;20520;-79
2021/10/05 12:33:24;;;;;;;3.80;2.75;;;16.00;99.90;;;;;;5091112;28;20164;-79
2021/10/05 12:35:53;;;;;;;1.52;1.42;;;16.10;99.90;;;;;;5091060;28;20164;-79
2021/10/05 12:38:22;;;;;;;3.40;1.80;;;15.90;99.90;;;;;;5089648;28;20680;-79
2021/10/05 12:40:56;;;;;;;1.30;1.30;;;16.00;99.90;;;;;;5090924;28;20203;-79
2021/10/05 12:43:35;;;;;;;1.83;1.73;;;16.00;99.90;;;;;;5089748;28;20160;-79
2021/10/05 12:46:04;;;;;;;3.97;1.40;;;15.90;99.90;;;;;;5090918;28;20625;-79
2021/10/05 12:48:46;;;;;;;1.60;1.50;;;15.90;99.90;;;;;;5090752;28;20175;-79
2021/10/05 12:51:16;;;;;;;1.70;1.60;;;15.80;99.90;;;;;;5090839;28;20558;-79
2021/10/05 12:53:44;;;;;;;2.97;1.92;;;15.80;99.90;;;;;;5090868;28;20163;-79
2021/10/05 12:56:09;;;;;;;2.33;1.45;;;15.80;99.90;;;;;;5090660;28;20676;-79
2021/10/05 12:58:40;;;;;;;2.40;1.50;;;15.70;99.90;;;;;;5090398;28;20199;-79
2021/10/05 13:01:06;;;;;;;3.42;1.50;;;15.60;99.90;;;;;;5090583;28;20160;-79
2021/10/05 13:03:33;;;;;;;2.25;2.08;;;15.70;99.90;;;;;;5090581;28;20194;-79
2021/10/05 13:05:59;;;;;;;5.55;1.70;;;15.70;99.90;;;;;;5090383;28;20168;-79
2021/10/05 13:08:25;;;;;;;1.90;1.80;;;15.70;99.90;;;;;;5090289;28;20175;-79
2021/10/05 13:10:51;;;;;;;1.85;1.75;;;15.80;99.90;;;;;;5090366;28;20190;-79
2021/10/05 13:13:16;;;;;;;4.88;2.17;;;15.70;99.90;;;;;;5090330;28;20636;-79
2021/10/05 13:15:42;;;;;;;2.15;1.67;;;15.70;99.90;;;;;;5090299;28;20179;-79
2021/10/05 13:18:08;;;;;;;1.85;1.55;;;15.90;99.90;;;;;;5090299;28;20647;-79
2021/10/05 13:20:33;;;;;;;1.80;1.70;;;15.80;99.90;;;;;;5089965;28;20292;-78
2021/10/05 13:22:59;;;;;;;1.63;1.52;;;15.70;99.90;;;;;;5088840;28;20210;-79
2021/10/05 13:25:26;;;;;;;1.67;1.58;;;15.80;99.90;;;;;;5090010;28;20203;-79
2021/10/05 13:27:51;;;;;;;1.90;1.80;;;15.70;99.90;;;;;;5090167;28;20164;-79
2021/10/05 13:30:19;;;;;;;1.70;1.40;;;15.80;99.90;;;;;;5087338;28;20165;-79
2021/10/05 13:32:45;;;;;;;5.95;1.60;;;15.70;99.90;;;;;;5076565;28;20168;-79
2021/10/05 13:35:11;;;;;;;3.13;1.60;;;15.60;99.90;;;;;;5076455;28;20526;-79
2021/10/05 13:37:39;;;;;;;2.22;1.77;;;15.90;99.90;;;;;;5076301;28;20274;-79
2021/10/05 13:40:06;;;;;;;3.10;1.55;;;16.00;99.90;;;;;;5076214;28;20295;-79
2021/10/05 13:42:31;;;;;;;2.70;2.20;;;16.10;99.90;;;;;;5076271;28;20200;-79
2021/10/05 13:44:57;;;;;;;1.50;1.40;;;16.20;99.90;;;;;;5076176;28;20562;-79
2021/10/05 13:47:23;;;;;;;1.20;1.17;;;16.20;99.90;;;;;;5076263;28;20164;-79
2021/10/05 13:49:48;;;;;;;3.17;1.42;;;16.30;99.90;;;;;;5076130;28;20192;-79
2021/10/05 13:52:17;;;;;;;1.70;1.60;;;16.40;99.90;;;;;;5076217;28;20237;-79
2021/10/05 13:54:43;;;;;;;1.45;1.30;;;16.40;99.90;;;;;;5074859;28;20168;-79
2021/10/05 13:57:09;;;;;;;2.72;1.55;;;16.30;99.90;;;;;;5075853;28;20168;-79
2021/10/05 13:59:36;;;;;;;1.60;1.50;;;16.20;99.90;;;;;;5074633;28;20188;-79
2021/10/05 14:02:01;;;;;;;1.65;1.50;;;16.10;99.90;;;;;;5075974;28;20168;-79
2021/10/05 14:04:27;;;;;;;2.70;1.67;;;15.90;99.90;;;;;;5075775;28;20172;-79
2021/10/05 14:06:52;;;;;;;2.08;1.98;;;15.80;99.90;;;;;;5075859;28;20175;-79
2021/10/05 14:09:18;;;;;;;1.40;1.40;;;15.60;99.90;;;;;;5075722;28;20172;-79
2021/10/05 14:11:44;;;;;;;1.70;1.60;;;15.40;99.90;;;;;;5075818;28;20510;-79
2021/10/05 14:14:10;;;;;;;1.40;1.40;;;15.20;99.90;;;;;;5074622;28;20165;-79
2021/10/05 14:16:37;;;;;;;4.22;1.45;;;15.20;99.90;;;;;;5075711;28;20168;-79
2021/10/05 14:19:03;;;;;;;3.67;1.73;;;15.00;99.90;;;;;;5075337;28;20220;-79
2021/10/05 14:21:29;;;;;;;1.90;1.80;;;15.10;99.90;;;;;;5075415;28;20251;-79
